sensor_id;sensor_type;location;lat;lon;timestamp;temperature;humidity
51922;DHT22;37948;53.260;6.394;2022-07-01T00:00:56;16.00;99.90
51922;DHT22;37948;53.260;6.394;2022-07-01T00:03:22;15.90;99.90
51922;DHT22;37948;53.260;6.394;2022-07-01T00:05:47;15.90;99.90
51922;DHT22;37948;53.260;6.394;2022-07-01T00:08:13;15.90;99.90
51922;DHT22;37948;53.260;6.394;2022-07-01T00:10:39;15.90;99.90
51922;DHT22;37948;53.260;6.394;2022-07-01T00:13:05;15.90;99.90
51922;DHT22;37948;53.260;6.394;2022-07-01T00:15:32;15.90;99.90
51922;DHT22;37948;53.260;6.394;2022-07-01T00:17:57;15.90;99.90
51922;DHT22;37948;53.260;6.394;2022-07-01T00:20:23;15.90;99.90
51922;DHT22;37948;53.260;6.394;2022-07-01T00:22:48;15.90;99.90
51922;DHT22;37948;53.260;6.394;2022-07-01T00:25:14;15.90;99.90
51922;DHT22;37948;53.260;6.394;2022-07-01T00:27:40;15.90;99.90
51922;DHT22;37948;53.260;6.394;2022-07-01T00:30:07;15.90;99.90
51922;DHT22;37948;53.260;6.394;2022-07-01T00:32:32;15.90;99.90
51922;DHT22;37948;53.260;6.394;2022-07-01T00:34:58;16.00;99.90
51922;DHT22;37948;53.260;6.394;2022-07-01T00:37:24;16.00;99.90
51922;DHT22;37948;53.260;6.394;2022-07-01T00:39:49;16.00;99.90
51922;DHT22;37948;53.260;6.394;2022-07-01T00:42:15;16.00;99.90
51922;DHT22;37948;53.260;6.394;2022-07-01T00:44:40;16.00;99.90
51922;DHT22;37948;53.260;6.394;2022-07-01T00:47:10;16.00;99.90
51922;DHT22;37948;53.260;6.394;2022-07-01T00:49:37;16.00;99.90
51922;DHT22;37948;53.260;6.394;2022-07-01T00:52:07;16.00;99.90
51922;DHT22;37948;53.260;6.394;2022-07-01T00:54:36;16.00;99.90
51922;DHT22;37948;53.260;6.394;2022-07-01T00:57:06;15.90;99.90
51922;DHT22;37948;53.260;6.394;2022-07-01T00:59:32;15.90;99.90
51922;DHT22;37948;53.260;6.394;2022-07-01T01:02:00;15.90;99.90
51922;DHT22;37948;53.260;6.394;2022-07-01T01:04:25;15.90;99.90
51922;DHT22;37948;53.260;6.394;2022-07-01T01:06:51;15.90;99.90
51922;DHT22;37948;53.260;6.394;2022-07-01T01:09:16;15.90;99.90
51922;DHT22;37948;53.260;6.394;2022-07-01T01:11:42;15.90;99.90
51922;DHT22;37948;53.260;6.394;2022-07-01T01:14:08;15.90;99.90
51922;DHT22;37948;53.260;6.394;2022-07-01T01:16:34;15.90;99.90
51922;DHT22;37948;53.260;6.394;2022-07-01T01:19:06;15.90;99.90
51922;DHT22;37948;53.260;6.394;2022-07-01T01:21:35;15.90;99.90
51922;DHT22;37948;53.260;6.394;2022-07-01T01:24:01;15.90;99.90
51922;DHT22;37948;53.260;6.394;2022-07-01T01:26:26;15.90;99.90
51922;DHT22;37948;53.260;6.394;2022-07-01T01:28:52;15.90;99.90
51922;DHT22;37948;53.260;6.394;2022-07-01T01:31:28;15.80;99.90
51922;DHT22;37948;53.260;6.394;2022-07-01T01:33:54;15.90;99.90
51922;DHT22;37948;53.260;6.394;2022-07-01T01:36:20;15.90;99.90
51922;DHT22;37948;53.260;6.394;2022-07-01T01:38:45;15.90;99.90
51922;DHT22;37948;53.260;6.394;2022-07-01T01:41:11;15.90;99.90
51922;DHT22;37948;53.260;6.394;2022-07-01T01:43:37;15.80;99.90
51922;DHT22;37948;53.260;6.394;2022-07-01T01:46:03;15.80;99.90
51922;DHT22;37948;53.260;6.394;2022-07-01T01:48:30;15.80;99.90
51922;DHT22;37948;53.260;6.394;2022-07-01T01:50:56;15.80;99.90
51922;DHT22;37948;53.260;6.394;2022-07-01T01:53:21;15.80;99.90
51922;DHT22;37948;53.260;6.394;2022-07-01T01:55:47;15.80;99.90
51922;DHT22;37948;53.260;6.394;2022-07-01T01:58:13;15.80;99.90
51922;DHT22;37948;53.260;6.394;2022-07-01T02:00:38;15.80;99.90
51922;DHT22;37948;53.260;6.394;2022-07-01T02:03:04;15.80;99.90
51922;DHT22;37948;53.260;6.394;2022-07-01T02:05:30;15.80;99.90
51922;DHT22;37948;53.260;6.394;2022-07-01T02:07:55;15.80;99.90
51922;DHT22;37948;53.260;6.394;2022-07-01T02:10:21;15.80;99.90
51922;DHT22;37948;53.260;6.394;2022-07-01T02:12:47;15.80;99.90
51922;DHT22;37948;53.260;6.394;2022-07-01T02:15:12;15.80;99.90
51922;DHT22;37948;53.260;6.394;2022-07-01T02:17:38;15.80;99.90
51922;DHT22;37948;53.260;6.394;2022-07-01T02:20:04;15.80;99.90
51922;DHT22;37948;53.260;6.394;2022-07-01T02:22:30;15.80;99.90
51922;DHT22;37948;53.260;6.394;2022-07-01T02:24:55;15.80;99.90
51922;DHT22;37948;53.260;6.394;2022-07-01T02:27:21;15.80;99.90
51922;DHT22;37948;53.260;6.394;2022-07-01T02:29:46;15.80;99.90
51922;DHT22;37948;53.260;6.394;2022-07-01T02:32:12;15.80;99.90
51922;DHT22;37948;53.260;6.394;2022-07-01T02:34:38;15.90;99.90
51922;DHT22;37948;53.260;6.394;2022-07-01T02:37:03;15.90;99.90
51922;DHT22;37948;53.260;6.394;2022-07-01T02:39:29;15.90;99.90
51922;DHT22;37948;53.260;6.394;2022-07-01T02:41:54;15.90;99.90
51922;DHT22;37948;53.260;6.394;2022-07-01T02:44:39;15.90;99.90
51922;DHT22;37948;53.260;6.394;2022-07-01T02:47:04;15.90;99.90
51922;DHT22;37948;53.260;6.394;2022-07-01T02:49:31;15.90;99.90
51922;DHT22;37948;53.260;6.394;2022-07-01T02:51:56;15.90;99.90
51922;DHT22;37948;53.260;6.394;2022-07-01T02:54:22;15.90;99.90
51922;DHT22;37948;53.260;6.394;2022-07-01T02:56:47;15.90;99.90
51922;DHT22;37948;53.260;6.394;2022-07-01T02:59:13;15.90;99.90
51922;DHT22;37948;53.260;6.394;2022-07-01T03:01:39;15.80;99.90
51922;DHT22;37948;53.260;6.394;2022-07-01T03:04:04;15.90;99.90
51922;DHT22;37948;53.260;6.394;2022-07-01T03:06:30;15.90;99.90
51922;DHT22;37948;53.260;6.394;2022-07-01T03:08:55;15.90;99.90
51922;DHT22;37948;53.260;6.394;2022-07-01T03:11:23;15.80;99.90
51922;DHT22;37948;53.260;6.394;2022-07-01T03:13:49;15.70;99.90
51922;DHT22;37948;53.260;6.394;2022-07-01T03:16:14;15.70;99.90
51922;DHT22;37948;53.260;6.394;2022-07-01T03:18:40;15.70;99.90
51922;DHT22;37948;53.260;6.394;2022-07-01T03:21:06;15.70;99.90
51922;DHT22;37948;53.260;6.394;2022-07-01T03:23:32;15.70;99.90
51922;DHT22;37948;53.260;6.394;2022-07-01T03:25:57;15.70;99.90
51922;DHT22;37948;53.260;6.394;2022-07-01T03:28:23;15.70;99.90
51922;DHT22;37948;53.260;6.394;2022-07-01T03:30:48;15.70;99.90
51922;DHT22;37948;53.260;6.394;2022-07-01T03:33:14;15.60;99.90
51922;DHT22;37948;53.260;6.394;2022-07-01T03:35:39;15.60;99.90
51922;DHT22;37948;53.260;6.394;2022-07-01T03:38:06;15.60;99.90
51922;DHT22;37948;53.260;6.394;2022-07-01T03:40:32;15.60;99.90
51922;DHT22;37948;53.260;6.394;2022-07-01T03:42:58;15.60;99.90
51922;DHT22;37948;53.260;6.394;2022-07-01T03:45:23;15.60;99.90
51922;DHT22;37948;53.260;6.394;2022-07-01T03:47:49;15.60;99.90
51922;DHT22;37948;53.260;6.394;2022-07-01T03:50:16;15.60;99.90
51922;DHT22;37948;53.260;6.394;2022-07-01T03:52:42;15.60;99.90
51922;DHT22;37948;53.260;6.394;2022-07-01T03:55:09;15.70;99.90
51922;DHT22;37948;53.260;6.394;2022-07-01T03:57:35;15.70;99.90
51922;DHT22;37948;53.260;6.394;2022-07-01T04:00:00;15.70;99.90
51922;DHT22;37948;53.260;6.394;2022-07-01T04:02:26;15.70;99.90
51922;DHT22;37948;53.260;6.394;2022-07-01T04:04:52;15.70;99.90
51922;DHT22;37948;53.260;6.394;2022-07-01T04:07:17;15.70;99.90
51922;DHT22;37948;53.260;6.394;2022-07-01T04:09:43;15.60;99.90
51922;DHT22;37948;53.260;6.394;2022-07-01T04:12:10;15.60;99.90
51922;DHT22;37948;53.260;6.394;2022-07-01T04:14:38;15.60;99.90
51922;DHT22;37948;53.260;6.394;2022-07-01T04:17:03;15.60;99.90
51922;DHT22;37948;53.260;6.394;2022-07-01T04:19:30;15.60;99.90
51922;DHT22;37948;53.260;6.394;2022-07-01T04:21:55;15.70;99.90
51922;DHT22;37948;53.260;6.394;2022-07-01T04:24:40;15.70;99.90
51922;DHT22;37948;53.260;6.394;2022-07-01T04:27:05;15.70;99.90
51922;DHT22;37948;53.260;6.394;2022-07-01T04:29:31;15.70;99.90
51922;DHT22;37948;53.260;6.394;2022-07-01T04:31:57;15.70;99.90
51922;DHT22;37948;53.260;6.394;2022-07-01T04:34:24;15.70;99.90
51922;DHT22;37948;53.260;6.394;2022-07-01T04:36:49;15.70;99.90
51922;DHT22;37948;53.260;6.394;2022-07-01T04:39:15;15.70;99.90
51922;DHT22;37948;53.260;6.394;2022-07-01T04:41:40;15.70;99.90
51922;DHT22;37948;53.260;6.394;2022-07-01T04:44:25;15.70;99.90
51922;DHT22;37948;53.260;6.394;2022-07-01T04:46:51;15.70;99.90
51922;DHT22;37948;53.260;6.394;2022-07-01T04:49:16;15.70;99.90
51922;DHT22;37948;53.260;6.394;2022-07-01T04:51:42;15.70;99.90
51922;DHT22;37948;53.260;6.394;2022-07-01T04:54:08;15.70;99.90
51922;DHT22;37948;53.260;6.394;2022-07-01T04:56:34;15.70;99.90
51922;DHT22;37948;53.260;6.394;2022-07-01T04:59:01;15.80;99.90
51922;DHT22;37948;53.260;6.394;2022-07-01T05:01:26;15.80;99.90
51922;DHT22;37948;53.260;6.394;2022-07-01T05:03:53;15.80;99.90
51922;DHT22;37948;53.260;6.394;2022-07-01T05:06:19;15.90;99.90
51922;DHT22;37948;53.260;6.394;2022-07-01T05:08:44;15.90;99.90
51922;DHT22;37948;53.260;6.394;2022-07-01T05:11:10;15.90;99.90
51922;DHT22;37948;53.260;6.394;2022-07-01T05:13:36;15.90;99.90
51922;DHT22;37948;53.260;6.394;2022-07-01T05:16:02;16.00;99.90
51922;DHT22;37948;53.260;6.394;2022-07-01T05:18:28;16.00;99.90
51922;DHT22;37948;53.260;6.394;2022-07-01T05:21:13;16.00;99.90
51922;DHT22;37948;53.260;6.394;2022-07-01T05:23:57;16.10;99.90
51922;DHT22;37948;53.260;6.394;2022-07-01T05:26:23;16.10;99.90
51922;DHT22;37948;53.260;6.394;2022-07-01T05:28:52;16.00;99.90
51922;DHT22;37948;53.260;6.394;2022-07-01T05:31:18;16.10;99.90
51922;DHT22;37948;53.260;6.394;2022-07-01T05:33:43;16.10;99.90
51922;DHT22;37948;53.260;6.394;2022-07-01T05:36:09;16.20;99.90
51922;DHT22;37948;53.260;6.394;2022-07-01T05:38:35;16.20;99.90
51922;DHT22;37948;53.260;6.394;2022-07-01T05:41:01;16.20;99.90
51922;DHT22;37948;53.260;6.394;2022-07-01T05:43:26;16.20;99.90
51922;DHT22;37948;53.260;6.394;2022-07-01T05:45:52;16.30;99.90
51922;DHT22;37948;53.260;6.394;2022-07-01T05:48:18;16.20;99.90
51922;DHT22;37948;53.260;6.394;2022-07-01T05:50:43;16.20;99.90
51922;DHT22;37948;53.260;6.394;2022-07-01T05:53:09;16.30;99.90
51922;DHT22;37948;53.260;6.394;2022-07-01T05:55:35;16.30;99.90
51922;DHT22;37948;53.260;6.394;2022-07-01T05:58:01;16.30;99.90
51922;DHT22;37948;53.260;6.394;2022-07-01T06:00:27;16.30;99.90
51922;DHT22;37948;53.260;6.394;2022-07-01T06:02:53;16.30;99.90
51922;DHT22;37948;53.260;6.394;2022-07-01T06:05:19;16.40;99.90
51922;DHT22;37948;53.260;6.394;2022-07-01T06:07:45;16.50;99.90
51922;DHT22;37948;53.260;6.394;2022-07-01T06:10:11;16.40;99.90
51922;DHT22;37948;53.260;6.394;2022-07-01T06:12:37;16.50;99.90
51922;DHT22;37948;53.260;6.394;2022-07-01T06:15:05;16.50;99.90
51922;DHT22;37948;53.260;6.394;2022-07-01T06:17:31;16.50;99.90
51922;DHT22;37948;53.260;6.394;2022-07-01T06:19:57;16.50;99.90
51922;DHT22;37948;53.260;6.394;2022-07-01T06:22:22;16.60;99.90
51922;DHT22;37948;53.260;6.394;2022-07-01T06:24:48;16.60;99.90
51922;DHT22;37948;53.260;6.394;2022-07-01T06:27:13;16.70;99.90
51922;DHT22;37948;53.260;6.394;2022-07-01T06:29:39;16.70;99.90
51922;DHT22;37948;53.260;6.394;2022-07-01T06:32:05;16.70;99.90
51922;DHT22;37948;53.260;6.394;2022-07-01T06:34:31;16.80;99.90
51922;DHT22;37948;53.260;6.394;2022-07-01T06:36:56;16.90;99.90
51922;DHT22;37948;53.260;6.394;2022-07-01T06:39:26;16.90;99.90
51922;DHT22;37948;53.260;6.394;2022-07-01T06:41:52;16.90;99.90
51922;DHT22;37948;53.260;6.394;2022-07-01T06:44:18;16.90;99.90
51922;DHT22;37948;53.260;6.394;2022-07-01T06:46:43;16.90;99.90
51922;DHT22;37948;53.260;6.394;2022-07-01T06:49:09;16.90;99.90
51922;DHT22;37948;53.260;6.394;2022-07-01T06:51:35;16.90;99.90
51922;DHT22;37948;53.260;6.394;2022-07-01T06:54:00;16.90;99.90
51922;DHT22;37948;53.260;6.394;2022-07-01T06:56:26;17.00;99.90
51922;DHT22;37948;53.260;6.394;2022-07-01T06:58:52;17.00;99.90
51922;DHT22;37948;53.260;6.394;2022-07-01T07:01:17;17.00;99.90
51922;DHT22;37948;53.260;6.394;2022-07-01T07:03:43;17.10;99.90
51922;DHT22;37948;53.260;6.394;2022-07-01T07:06:09;17.10;99.90
51922;DHT22;37948;53.260;6.394;2022-07-01T07:08:34;17.10;99.90
51922;DHT22;37948;53.260;6.394;2022-07-01T07:11:00;17.10;99.90
51922;DHT22;37948;53.260;6.394;2022-07-01T07:13:25;17.10;99.90
51922;DHT22;37948;53.260;6.394;2022-07-01T07:15:51;17.10;99.90
51922;DHT22;37948;53.260;6.394;2022-07-01T07:18:17;17.00;99.90
51922;DHT22;37948;53.260;6.394;2022-07-01T07:20:43;17.00;99.90
51922;DHT22;37948;53.260;6.394;2022-07-01T07:23:09;16.90;99.90
51922;DHT22;37948;53.260;6.394;2022-07-01T07:25:35;16.90;99.90
51922;DHT22;37948;53.260;6.394;2022-07-01T07:28:01;16.90;99.90
51922;DHT22;37948;53.260;6.394;2022-07-01T07:30:26;16.90;99.90
51922;DHT22;37948;53.260;6.394;2022-07-01T07:32:52;16.90;99.90
51922;DHT22;37948;53.260;6.394;2022-07-01T07:35:17;16.90;99.90
51922;DHT22;37948;53.260;6.394;2022-07-01T07:37:43;17.00;99.90
51922;DHT22;37948;53.260;6.394;2022-07-01T07:40:12;17.10;99.90
51922;DHT22;37948;53.260;6.394;2022-07-01T07:42:41;17.10;99.90
51922;DHT22;37948;53.260;6.394;2022-07-01T07:45:09;17.10;99.90
51922;DHT22;37948;53.260;6.394;2022-07-01T07:47:37;17.10;99.90
51922;DHT22;37948;53.260;6.394;2022-07-01T07:50:04;17.20;99.90
51922;DHT22;37948;53.260;6.394;2022-07-01T07:52:30;17.10;99.90
51922;DHT22;37948;53.260;6.394;2022-07-01T07:54:56;17.10;99.90
51922;DHT22;37948;53.260;6.394;2022-07-01T07:57:22;17.10;99.90
51922;DHT22;37948;53.260;6.394;2022-07-01T07:59:47;17.10;99.90
51922;DHT22;37948;53.260;6.394;2022-07-01T08:02:13;17.10;99.90
51922;DHT22;37948;53.260;6.394;2022-07-01T08:04:39;17.10;99.90
51922;DHT22;37948;53.260;6.394;2022-07-01T08:07:05;17.10;99.90
51922;DHT22;37948;53.260;6.394;2022-07-01T08:09:30;17.20;99.90
51922;DHT22;37948;53.260;6.394;2022-07-01T08:12:01;17.20;99.90
51922;DHT22;37948;53.260;6.394;2022-07-01T08:14:26;17.20;99.90
51922;DHT22;37948;53.260;6.394;2022-07-01T08:16:52;17.30;99.90
51922;DHT22;37948;53.260;6.394;2022-07-01T08:19:18;17.30;99.90
51922;DHT22;37948;53.260;6.394;2022-07-01T08:21:43;17.40;99.90
51922;DHT22;37948;53.260;6.394;2022-07-01T08:24:09;17.30;99.90
51922;DHT22;37948;53.260;6.394;2022-07-01T08:26:34;17.30;99.90
51922;DHT22;37948;53.260;6.394;2022-07-01T08:29:00;17.30;99.90
51922;DHT22;37948;53.260;6.394;2022-07-01T08:31:25;17.30;99.90
51922;DHT22;37948;53.260;6.394;2022-07-01T08:33:51;17.40;99.90
51922;DHT22;37948;53.260;6.394;2022-07-01T08:36:17;17.50;99.90
51922;DHT22;37948;53.260;6.394;2022-07-01T08:38:42;17.50;99.90
51922;DHT22;37948;53.260;6.394;2022-07-01T08:41:08;17.60;99.90
51922;DHT22;37948;53.260;6.394;2022-07-01T08:43:34;17.70;99.90
51922;DHT22;37948;53.260;6.394;2022-07-01T08:46:02;17.90;99.90
51922;DHT22;37948;53.260;6.394;2022-07-01T08:48:29;18.10;99.90
51922;DHT22;37948;53.260;6.394;2022-07-01T08:50:55;18.20;99.90
51922;DHT22;37948;53.260;6.394;2022-07-01T08:53:20;18.30;99.90
51922;DHT22;37948;53.260;6.394;2022-07-01T08:55:46;18.30;99.90
51922;DHT22;37948;53.260;6.394;2022-07-01T08:58:31;18.30;99.90
51922;DHT22;37948;53.260;6.394;2022-07-01T09:01:20;18.40;99.90
51922;DHT22;37948;53.260;6.394;2022-07-01T09:03:47;18.50;99.90
51922;DHT22;37948;53.260;6.394;2022-07-01T09:06:16;18.50;99.90
51922;DHT22;37948;53.260;6.394;2022-07-01T09:08:42;18.50;99.90
51922;DHT22;37948;53.260;6.394;2022-07-01T09:11:22;18.50;99.90
51922;DHT22;37948;53.260;6.394;2022-07-01T09:14:11;18.60;99.90
51922;DHT22;37948;53.260;6.394;2022-07-01T09:16:48;18.70;99.90
51922;DHT22;37948;53.260;6.394;2022-07-01T09:19:17;18.90;99.90
51922;DHT22;37948;53.260;6.394;2022-07-01T09:21:48;18.90;99.90
51922;DHT22;37948;53.260;6.394;2022-07-01T09:24:25;18.90;99.90
51922;DHT22;37948;53.260;6.394;2022-07-01T09:26:57;18.80;99.90
51922;DHT22;37948;53.260;6.394;2022-07-01T09:29:28;18.80;99.90
51922;DHT22;37948;53.260;6.394;2022-07-01T09:31:54;18.80;99.90
51922;DHT22;37948;53.260;6.394;2022-07-01T09:34:19;18.70;99.90
51922;DHT22;37948;53.260;6.394;2022-07-01T09:36:56;18.70;99.90
51922;DHT22;37948;53.260;6.394;2022-07-01T09:39:23;18.60;99.90
51922;DHT22;37948;53.260;6.394;2022-07-01T09:41:49;18.60;99.90
51922;DHT22;37948;53.260;6.394;2022-07-01T09:44:15;18.60;99.90
51922;DHT22;37948;53.260;6.394;2022-07-01T09:46:54;18.60;99.90
51922;DHT22;37948;53.260;6.394;2022-07-01T09:49:20;18.70;99.90
51922;DHT22;37948;53.260;6.394;2022-07-01T09:51:47;18.70;99.90
51922;DHT22;37948;53.260;6.394;2022-07-01T09:54:14;18.80;99.90
51922;DHT22;37948;53.260;6.394;2022-07-01T09:56:40;18.90;99.90
51922;DHT22;37948;53.260;6.394;2022-07-01T09:59:06;19.10;99.90
51922;DHT22;37948;53.260;6.394;2022-07-01T10:01:32;19.30;99.90
51922;DHT22;37948;53.260;6.394;2022-07-01T10:04:00;19.30;99.90
51922;DHT22;37948;53.260;6.394;2022-07-01T10:09:18;19.20;99.90
51922;DHT22;37948;53.260;6.394;2022-07-01T10:14:49;19.30;99.90
51922;DHT22;37948;53.260;6.394;2022-07-01T10:17:33;19.30;99.90
51922;DHT22;37948;53.260;6.394;2022-07-01T10:20:09;19.40;99.90
51922;DHT22;37948;53.260;6.394;2022-07-01T10:22:36;19.50;99.90
51922;DHT22;37948;53.260;6.394;2022-07-01T10:25:28;19.50;99.90
51922;DHT22;37948;53.260;6.394;2022-07-01T10:33:55;19.80;99.90
51922;DHT22;37948;53.260;6.394;2022-07-01T10:36:30;19.80;99.90
51922;DHT22;37948;53.260;6.394;2022-07-01T10:44:14;19.50;99.90
51922;DHT22;37948;53.260;6.394;2022-07-01T10:46:48;19.30;99.90
51922;DHT22;37948;53.260;6.394;2022-07-01T10:49:19;19.20;99.90
51922;DHT22;37948;53.260;6.394;2022-07-01T10:59:52;18.00;99.90
51922;DHT22;37948;53.260;6.394;2022-07-01T11:02:26;17.90;99.90
51922;DHT22;37948;53.260;6.394;2022-07-01T11:05:03;17.80;99.90
51922;DHT22;37948;53.260;6.394;2022-07-01T11:07:34;17.80;99.90
51922;DHT22;37948;53.260;6.394;2022-07-01T11:10:02;17.70;99.90
51922;DHT22;37948;53.260;6.394;2022-07-01T11:12:28;17.70;99.90
51922;DHT22;37948;53.260;6.394;2022-07-01T11:14:56;17.60;99.90
51922;DHT22;37948;53.260;6.394;2022-07-01T11:17:23;17.60;99.90
51922;DHT22;37948;53.260;6.394;2022-07-01T11:19:53;17.60;99.90
51922;DHT22;37948;53.260;6.394;2022-07-01T11:22:21;17.70;99.90
51922;DHT22;37948;53.260;6.394;2022-07-01T11:24:52;17.80;99.90
51922;DHT22;37948;53.260;6.394;2022-07-01T11:27:18;17.80;99.90
51922;DHT22;37948;53.260;6.394;2022-07-01T11:29:44;17.90;99.90
51922;DHT22;37948;53.260;6.394;2022-07-01T11:32:10;17.90;99.90
51922;DHT22;37948;53.260;6.394;2022-07-01T11:34:37;18.00;99.90
51922;DHT22;37948;53.260;6.394;2022-07-01T11:37:09;18.00;99.90
51922;DHT22;37948;53.260;6.394;2022-07-01T11:40:11;18.10;99.90
51922;DHT22;37948;53.260;6.394;2022-07-01T11:42:38;18.40;99.90
51922;DHT22;37948;53.260;6.394;2022-07-01T11:45:05;18.60;99.90
51922;DHT22;37948;53.260;6.394;2022-07-01T11:47:31;18.90;99.90
51922;DHT22;37948;53.260;6.394;2022-07-01T11:49:58;19.20;99.90
51922;DHT22;37948;53.260;6.394;2022-07-01T11:52:24;19.30;99.90
51922;DHT22;37948;53.260;6.394;2022-07-01T11:54:53;19.40;99.90
51922;DHT22;37948;53.260;6.394;2022-07-01T11:57:24;19.40;99.90
51922;DHT22;37948;53.260;6.394;2022-07-01T11:59:52;19.30;99.90
51922;DHT22;37948;53.260;6.394;2022-07-01T12:02:19;19.50;99.90
51922;DHT22;37948;53.260;6.394;2022-07-01T12:04:47;19.60;99.90
51922;DHT22;37948;53.260;6.394;2022-07-01T12:07:15;19.50;99.90
51922;DHT22;37948;53.260;6.394;2022-07-01T12:09:42;19.40;99.90
51922;DHT22;37948;53.260;6.394;2022-07-01T12:12:16;19.50;99.90
51922;DHT22;37948;53.260;6.394;2022-07-01T12:14:53;19.60;99.90
51922;DHT22;37948;53.260;6.394;2022-07-01T12:17:19;19.70;99.90
51922;DHT22;37948;53.260;6.394;2022-07-01T12:19:47;19.70;99.90
51922;DHT22;37948;53.260;6.394;2022-07-01T12:22:20;19.90;99.90
51922;DHT22;37948;53.260;6.394;2022-07-01T12:24:47;20.00;99.90
51922;DHT22;37948;53.260;6.394;2022-07-01T12:27:14;20.00;99.90
51922;DHT22;37948;53.260;6.394;2022-07-01T12:32:06;19.90;99.90
51922;DHT22;37948;53.260;6.394;2022-07-01T12:34:46;20.00;99.90
51922;DHT22;37948;53.260;6.394;2022-07-01T12:37:15;20.00;99.90
51922;DHT22;37948;53.260;6.394;2022-07-01T12:39:45;19.90;99.90
51922;DHT22;37948;53.260;6.394;2022-07-01T12:42:30;19.80;99.90
51922;DHT22;37948;53.260;6.394;2022-07-01T12:44:58;19.70;99.90
51922;DHT22;37948;53.260;6.394;2022-07-01T12:47:35;19.60;99.90
51922;DHT22;37948;53.260;6.394;2022-07-01T12:52:41;19.50;99.90
51922;DHT22;37948;53.260;6.394;2022-07-01T12:55:17;19.50;99.90
51922;DHT22;37948;53.260;6.394;2022-07-01T12:57:45;19.60;99.90
51922;DHT22;37948;53.260;6.394;2022-07-01T13:00:11;19.90;99.90
51922;DHT22;37948;53.260;6.394;2022-07-01T13:02:37;19.90;99.90
51922;DHT22;37948;53.260;6.394;2022-07-01T13:05:02;19.90;99.90
51922;DHT22;37948;53.260;6.394;2022-07-01T13:07:28;20.10;99.90
51922;DHT22;37948;53.260;6.394;2022-07-01T13:09:54;20.10;99.90
51922;DHT22;37948;53.260;6.394;2022-07-01T13:12:19;20.20;99.90
51922;DHT22;37948;53.260;6.394;2022-07-01T13:14:45;20.30;99.90
51922;DHT22;37948;53.260;6.394;2022-07-01T13:17:10;20.30;99.90
51922;DHT22;37948;53.260;6.394;2022-07-01T13:19:36;20.30;99.90
51922;DHT22;37948;53.260;6.394;2022-07-01T13:22:03;20.10;99.90
51922;DHT22;37948;53.260;6.394;2022-07-01T13:24:28;20.20;99.90
51922;DHT22;37948;53.260;6.394;2022-07-01T13:26:54;20.10;99.90
51922;DHT22;37948;53.260;6.394;2022-07-01T13:29:20;20.20;99.90
51922;DHT22;37948;53.260;6.394;2022-07-01T13:31:45;20.20;99.90
51922;DHT22;37948;53.260;6.394;2022-07-01T13:34:11;20.00;99.90
51922;DHT22;37948;53.260;6.394;2022-07-01T13:36:36;19.90;99.90
51922;DHT22;37948;53.260;6.394;2022-07-01T13:39:02;19.80;99.90
51922;DHT22;37948;53.260;6.394;2022-07-01T13:41:27;19.80;99.90
51922;DHT22;37948;53.260;6.394;2022-07-01T13:43:53;19.90;99.90
51922;DHT22;37948;53.260;6.394;2022-07-01T13:46:19;20.10;99.90
51922;DHT22;37948;53.260;6.394;2022-07-01T13:48:45;20.30;99.90
51922;DHT22;37948;53.260;6.394;2022-07-01T13:51:11;20.40;99.90
51922;DHT22;37948;53.260;6.394;2022-07-01T13:53:36;20.50;99.90
51922;DHT22;37948;53.260;6.394;2022-07-01T13:56:02;20.50;99.90
51922;DHT22;37948;53.260;6.394;2022-07-01T13:58:28;20.30;99.90
51922;DHT22;37948;53.260;6.394;2022-07-01T14:00:54;20.10;99.90
51922;DHT22;37948;53.260;6.394;2022-07-01T14:03:19;19.90;99.90
51922;DHT22;37948;53.260;6.394;2022-07-01T14:05:45;19.70;99.90
51922;DHT22;37948;53.260;6.394;2022-07-01T14:08:11;19.60;99.90
51922;DHT22;37948;53.260;6.394;2022-07-01T14:10:36;19.60;99.90
51922;DHT22;37948;53.260;6.394;2022-07-01T14:13:04;19.60;99.90
51922;DHT22;37948;53.260;6.394;2022-07-01T14:15:30;19.60;99.90
51922;DHT22;37948;53.260;6.394;2022-07-01T14:17:56;19.60;99.90
51922;DHT22;37948;53.260;6.394;2022-07-01T14:20:21;19.60;99.90
51922;DHT22;37948;53.260;6.394;2022-07-01T14:22:47;19.60;99.90
51922;DHT22;37948;53.260;6.394;2022-07-01T14:25:13;19.70;99.90
51922;DHT22;37948;53.260;6.394;2022-07-01T14:27:38;19.70;99.90
51922;DHT22;37948;53.260;6.394;2022-07-01T14:30:04;19.80;99.90
51922;DHT22;37948;53.260;6.394;2022-07-01T14:32:34;19.80;99.90
51922;DHT22;37948;53.260;6.394;2022-07-01T14:35:00;19.90;99.90
51922;DHT22;37948;53.260;6.394;2022-07-01T14:37:28;19.90;99.90
51922;DHT22;37948;53.260;6.394;2022-07-01T14:39:53;19.90;99.90
51922;DHT22;37948;53.260;6.394;2022-07-01T14:42:21;19.80;99.90
51922;DHT22;37948;53.260;6.394;2022-07-01T14:44:47;19.80;99.90
51922;DHT22;37948;53.260;6.394;2022-07-01T14:47:14;19.60;99.90
51922;DHT22;37948;53.260;6.394;2022-07-01T14:49:40;19.50;99.90
51922;DHT22;37948;53.260;6.394;2022-07-01T14:52:06;19.40;99.90
51922;DHT22;37948;53.260;6.394;2022-07-01T14:54:31;19.20;99.90
51922;DHT22;37948;53.260;6.394;2022-07-01T14:56:57;19.20;99.90
51922;DHT22;37948;53.260;6.394;2022-07-01T14:59:23;19.40;99.90
51922;DHT22;37948;53.260;6.394;2022-07-01T15:01:48;19.60;99.90
51922;DHT22;37948;53.260;6.394;2022-07-01T15:04:14;19.60;99.90
51922;DHT22;37948;53.260;6.394;2022-07-01T15:06:39;19.70;99.90
51922;DHT22;37948;53.260;6.394;2022-07-01T15:09:05;19.60;99.90
51922;DHT22;37948;53.260;6.394;2022-07-01T15:11:31;19.50;99.90
51922;DHT22;37948;53.260;6.394;2022-07-01T15:13:58;19.60;99.90
51922;DHT22;37948;53.260;6.394;2022-07-01T15:16:24;19.80;99.90
51922;DHT22;37948;53.260;6.394;2022-07-01T15:18:51;19.90;99.90
51922;DHT22;37948;53.260;6.394;2022-07-01T15:21:18;19.90;99.90
51922;DHT22;37948;53.260;6.394;2022-07-01T15:23:44;19.80;99.90
51922;DHT22;37948;53.260;6.394;2022-07-01T15:26:10;19.70;99.90
51922;DHT22;37948;53.260;6.394;2022-07-01T15:28:36;19.50;99.90
51922;DHT22;37948;53.260;6.394;2022-07-01T15:31:02;19.50;99.90
51922;DHT22;37948;53.260;6.394;2022-07-01T15:33:28;19.60;99.90
51922;DHT22;37948;53.260;6.394;2022-07-01T15:35:54;19.70;99.90
51922;DHT22;37948;53.260;6.394;2022-07-01T15:38:20;19.80;99.90
51922;DHT22;37948;53.260;6.394;2022-07-01T15:40:45;19.80;99.90
51922;DHT22;37948;53.260;6.394;2022-07-01T15:43:12;19.60;99.90
51922;DHT22;37948;53.260;6.394;2022-07-01T15:45:38;19.50;99.90
51922;DHT22;37948;53.260;6.394;2022-07-01T15:48:04;19.40;99.90
51922;DHT22;37948;53.260;6.394;2022-07-01T15:50:31;19.50;99.90
51922;DHT22;37948;53.260;6.394;2022-07-01T15:52:56;19.50;99.90
51922;DHT22;37948;53.260;6.394;2022-07-01T15:55:22;19.50;99.90
51922;DHT22;37948;53.260;6.394;2022-07-01T15:57:48;19.50;99.90
51922;DHT22;37948;53.260;6.394;2022-07-01T16:00:15;19.50;99.90